createdAt,value
2022-10-09T00:00:33.069Z,77.40
2022-10-09T00:01:33.020Z,77.40
2022-10-09T00:02:33.130Z,77.50
2022-10-09T00:03:32.996Z,77.50
2022-10-09T00:04:32.999Z,77.29
2022-10-09T00:05:33.006Z,77.20
2022-10-09T00:06:32.962Z,77.09
2022-10-09T00:07:33.090Z,77.09
2022-10-09T00:08:32.936Z,77.50
2022-10-09T00:09:32.929Z,77.50
2022-10-09T00:10:32.945Z,77.20
2022-10-09T00:11:32.908Z,77.40
2022-10-09T00:12:32.895Z,76.99
2022-10-09T00:13:32.880Z,77.29
2022-10-09T00:14:32.870Z,76.99
2022-10-09T00:15:32.853Z,76.99
2022-10-09T00:16:33.269Z,76.95
2022-10-09T00:17:32.862Z,77.09
2022-10-09T00:18:32.821Z,77.29
2022-10-09T00:19:32.815Z,77.50
2022-10-09T00:20:32.799Z,77.50
2022-10-09T00:21:32.801Z,77.40
2022-10-09T00:22:32.894Z,77.09
2022-10-09T00:23:32.771Z,76.99
2022-10-09T00:24:32.760Z,76.99
2022-10-09T00:25:32.737Z,77.50
2022-10-09T00:26:32.744Z,77.47
2022-10-09T00:27:32.722Z,77.50
2022-10-09T00:28:37.716Z,77.36
2022-10-09T00:29:33.699Z,77.36
2022-10-09T00:30:32.791Z,77.06
2022-10-09T00:31:32.692Z,77.29
2022-10-09T00:32:32.695Z,77.09
2022-10-09T00:33:32.651Z,77.26
2022-10-09T00:34:32.687Z,77.40
2022-10-09T00:35:32.655Z,76.99
2022-10-09T00:36:32.617Z,77.09
2022-10-09T00:37:32.607Z,77.50
2022-10-09T00:38:32.605Z,77.40
2022-10-09T00:39:32.586Z,77.50
2022-10-09T00:40:32.626Z,77.70
2022-10-09T00:41:32.558Z,77.70
2022-10-09T00:42:32.555Z,77.70
2022-10-09T00:43:32.539Z,77.81
2022-10-09T00:44:32.528Z,77.91
2022-10-09T00:45:32.519Z,78.11
2022-10-09T00:46:32.661Z,78.11
2022-10-09T00:47:32.494Z,78.01
2022-10-09T00:48:32.506Z,78.11
2022-10-09T00:49:32.472Z,77.81
2022-10-09T00:50:32.454Z,78.17
2022-10-09T00:51:32.449Z,78.11
2022-10-09T00:52:32.466Z,77.70
2022-10-09T00:53:32.429Z,77.91
2022-10-09T00:54:32.413Z,77.60
2022-10-09T00:55:32.395Z,77.60
2022-10-09T00:56:32.401Z,77.91
2022-10-09T00:57:32.380Z,77.60
2022-10-09T00:58:32.399Z,77.91
2022-10-09T00:59:32.355Z,77.77
2022-10-09T01:00:32.345Z,77.77
2022-10-09T01:01:32.382Z,77.70
2022-10-09T01:02:32.376Z,77.81
2022-10-09T01:03:32.320Z,77.70
2022-10-09T01:04:32.333Z,77.60
2022-10-09T01:05:32.301Z,77.67
2022-10-09T01:06:32.274Z,77.87
2022-10-09T01:07:32.260Z,77.60
2022-10-09T01:08:32.259Z,77.81
2022-10-09T01:09:32.237Z,77.60
2022-10-09T01:10:32.247Z,77.60
2022-10-09T01:11:32.213Z,77.60
2022-10-09T01:12:32.207Z,77.81
2022-10-09T01:13:32.203Z,77.60
2022-10-09T01:14:32.183Z,77.91
2022-10-09T01:15:32.246Z,77.70
2022-10-09T01:16:32.189Z,77.81
2022-10-09T01:17:32.149Z,77.81
2022-10-09T01:18:32.172Z,77.81
2022-10-09T01:19:32.128Z,77.81
2022-10-09T01:20:32.148Z,77.81
2022-10-09T01:21:32.111Z,77.60
2022-10-09T01:22:32.131Z,77.70
2022-10-09T01:23:32.087Z,77.91
2022-10-09T01:24:32.069Z,77.70
2022-10-09T01:25:32.062Z,77.60
2022-10-09T01:26:32.045Z,77.60
2022-10-09T01:27:32.041Z,77.60
2022-10-09T01:28:32.140Z,77.60
2022-10-09T01:29:32.014Z,77.60
2022-10-09T01:30:31.996Z,78.01
2022-10-09T01:31:32.043Z,77.60
2022-10-09T01:32:31.979Z,77.81
2022-10-09T01:33:31.966Z,77.50
2022-10-09T01:34:31.973Z,77.70
2022-10-09T01:35:31.942Z,77.70
2022-10-09T01:36:31.955Z,77.70
2022-10-09T01:37:31.933Z,77.29
2022-10-09T01:38:31.911Z,77.29
2022-10-09T01:39:31.914Z,77.40
2022-10-09T01:40:31.898Z,77.40
2022-10-09T01:41:31.888Z,77.40
2022-10-09T01:42:31.864Z,77.50
2022-10-09T01:43:31.857Z,77.29
2022-10-09T01:44:31.844Z,77.50
2022-10-09T01:45:31.830Z,77.60
2022-10-09T01:46:31.979Z,77.33
2022-10-09T01:47:31.806Z,77.74
2022-10-09T01:48:31.790Z,77.64
2022-10-09T01:49:31.787Z,77.84
2022-10-09T01:50:31.769Z,77.84
2022-10-09T01:51:31.763Z,78.05
2022-10-09T01:52:31.810Z,78.15
2022-10-09T01:53:31.738Z,77.94
2022-10-09T01:54:31.722Z,77.84
2022-10-09T01:55:31.723Z,77.94
2022-10-09T01:56:31.700Z,78.08
2022-10-09T01:57:31.695Z,77.98
2022-10-09T01:58:31.721Z,77.98
2022-10-09T01:59:31.667Z,77.98
2022-10-09T02:00:31.676Z,78.08
2022-10-09T02:01:31.784Z,77.87
2022-10-09T02:02:31.740Z,77.98
2022-10-09T02:03:31.655Z,77.87
2022-10-09T02:04:31.623Z,77.87
2022-10-09T02:05:31.603Z,77.87
2022-10-09T02:06:31.584Z,77.87
2022-10-09T02:07:31.567Z,77.98
2022-10-09T02:08:31.612Z,77.67
2022-10-09T02:09:31.547Z,77.98
2022-10-09T02:10:31.557Z,77.87
2022-10-09T02:11:31.539Z,77.98
2022-10-09T02:12:31.515Z,77.98
2022-10-09T02:13:31.509Z,77.78
2022-10-09T02:14:31.656Z,77.78
2022-10-09T02:15:31.564Z,77.78
2022-10-09T02:16:36.155Z,77.87
2022-10-09T02:17:32.501Z,77.74
2022-10-09T02:18:31.452Z,77.74
2022-10-09T02:19:31.446Z,77.94
2022-10-09T02:20:31.435Z,77.74
2022-10-09T02:21:31.417Z,77.74
2022-10-09T02:22:31.437Z,77.84
2022-10-09T02:23:31.388Z,77.94
2022-10-09T02:24:31.407Z,77.64
2022-10-09T02:25:31.382Z,77.53
2022-10-09T02:26:31.361Z,77.91
2022-10-09T02:27:31.355Z,77.74
2022-10-09T02:28:31.420Z,77.94
2022-10-09T02:29:31.325Z,77.60
2022-10-09T02:30:31.310Z,78.25
2022-10-09T02:31:31.359Z,78.01
2022-10-09T02:32:31.291Z,78.11
2022-10-09T02:33:31.279Z,78.11
2022-10-09T02:34:31.353Z,78.15
2022-10-09T02:35:31.260Z,78.21
2022-10-09T02:36:31.243Z,78.11
2022-10-09T02:37:31.225Z,77.91
2022-10-09T02:38:31.225Z,77.81
2022-10-09T02:39:31.208Z,77.94
2022-10-09T02:40:31.371Z,77.84
2022-10-09T02:41:31.185Z,77.84
2022-10-09T02:42:31.175Z,78.15
2022-10-09T02:43:31.165Z,77.94
2022-10-09T02:44:31.148Z,77.84
2022-10-09T02:45:31.144Z,78.15
2022-10-09T02:46:31.234Z,78.35
2022-10-09T02:47:31.120Z,78.15
2022-10-09T02:48:31.105Z,77.87
2022-10-09T02:49:31.106Z,78.39
2022-10-09T02:50:31.085Z,77.98
2022-10-09T02:51:31.071Z,78.28
2022-10-09T02:52:31.127Z,77.87
2022-10-09T02:53:31.042Z,77.78
2022-10-09T02:54:31.040Z,77.67
2022-10-09T02:55:31.080Z,77.67
2022-10-09T02:56:34.516Z,77.78
2022-10-09T02:57:32.031Z,77.67
2022-10-09T02:58:31.000Z,78.39
2022-10-09T02:59:30.977Z,78.28
2022-10-09T03:00:30.969Z,78.08
2022-10-09T03:01:30.997Z,77.87
2022-10-09T03:02:31.116Z,78.19
2022-10-09T03:03:30.965Z,77.87
2022-10-09T03:04:30.923Z,77.87
2022-10-09T03:05:30.910Z,78.49
2022-10-09T03:06:30.944Z,77.87
2022-10-09T03:07:30.893Z,77.87
2022-10-09T03:08:30.876Z,78.28
2022-10-09T03:09:33.687Z,78.28
2022-10-09T03:10:30.872Z,78.12
2022-10-09T03:11:30.838Z,77.98
2022-10-09T03:12:30.855Z,77.98
2022-10-09T03:13:30.817Z,78.28
2022-10-09T03:14:30.807Z,77.87
2022-10-09T03:15:30.832Z,77.98
2022-10-09T03:16:30.872Z,78.08
2022-10-09T03:17:30.768Z,78.08
2022-10-09T03:18:30.770Z,78.08
2022-10-09T03:19:30.752Z,78.08
2022-10-09T03:20:30.748Z,77.98
2022-10-09T03:21:30.744Z,78.28
2022-10-09T03:22:30.719Z,78.39
2022-10-09T03:23:30.724Z,78.39
2022-10-09T03:24:30.691Z,78.28
2022-10-09T03:25:30.700Z,78.19
2022-10-09T03:26:30.667Z,78.39
2022-10-09T03:27:30.734Z,78.39
2022-10-09T03:28:30.756Z,77.67
2022-10-09T03:29:30.633Z,77.67
2022-10-09T03:30:30.631Z,77.67
2022-10-09T03:31:51.160Z,77.98
2022-10-09T03:32:31.672Z,78.39
2022-10-09T03:33:30.594Z,77.78
2022-10-09T03:34:30.577Z,78.08
2022-10-09T03:35:30.583Z,78.19
2022-10-09T03:36:30.556Z,78.19
2022-10-09T03:37:30.543Z,77.78
2022-10-09T03:38:30.560Z,78.39
2022-10-09T03:39:30.516Z,77.87
2022-10-09T03:40:30.515Z,78.39
2022-10-09T03:41:30.564Z,78.39
2022-10-09T03:42:30.491Z,78.19
2022-10-09T03:43:30.471Z,78.19
2022-10-09T03:44:30.685Z,78.28
2022-10-09T03:45:30.450Z,78.28
2022-10-09T03:46:30.464Z,78.39
2022-10-09T03:47:30.432Z,78.28
2022-10-09T03:48:30.421Z,78.19
2022-10-09T03:49:30.406Z,78.19
2022-10-09T03:50:30.445Z,78.28
2022-10-09T03:51:30.382Z,78.08
2022-10-09T03:52:30.370Z,77.98
2022-10-09T03:53:30.366Z,78.19
2022-10-09T03:54:30.350Z,78.28
2022-10-09T03:55:30.336Z,78.19
2022-10-09T03:56:30.347Z,78.28
2022-10-09T03:57:30.314Z,78.39
2022-10-09T03:58:30.301Z,78.19
2022-10-09T03:59:30.293Z,78.39
2022-10-09T04:00:30.444Z,77.78
2022-10-09T04:01:30.279Z,78.39
2022-10-09T04:02:30.362Z,77.64
2022-10-09T04:03:30.243Z,77.57
2022-10-09T04:04:30.241Z,77.64
2022-10-09T04:05:30.216Z,78.35
2022-10-09T04:06:30.207Z,78.35
2022-10-09T04:07:30.199Z,77.64
2022-10-09T04:08:30.210Z,77.64
2022-10-09T04:09:30.175Z,77.74
2022-10-09T04:10:30.169Z,77.84
2022-10-09T04:11:30.150Z,77.94
2022-10-09T04:12:30.145Z,78.35
2022-10-09T04:13:30.134Z,77.74
2022-10-09T04:14:30.136Z,77.44
2022-10-09T04:15:30.126Z,77.74
2022-10-09T04:16:30.164Z,77.74
2022-10-09T04:17:30.081Z,77.64
2022-10-09T04:18:30.091Z,77.64
2022-10-09T04:19:30.056Z,77.74
2022-10-09T04:20:30.088Z,77.74
2022-10-09T04:21:30.041Z,77.94
2022-10-09T04:22:30.048Z,77.44
2022-10-09T04:23:30.024Z,77.64
2022-10-09T04:24:30.017Z,77.40
2022-10-09T04:25:29.995Z,77.74
2022-10-09T04:26:29.993Z,77.64
2022-10-09T04:27:29.968Z,77.60
2022-10-09T04:28:30.072Z,77.70
2022-10-09T04:29:29.948Z,77.81
2022-10-09T04:30:29.958Z,77.70
2022-10-09T04:31:30.000Z,77.60
2022-10-09T04:32:29.970Z,77.74
2022-10-09T04:33:29.904Z,77.94
2022-10-09T04:34:29.895Z,77.74
2022-10-09T04:35:29.883Z,77.60
2022-10-09T04:36:29.873Z,77.40
2022-10-09T04:37:29.862Z,77.40
2022-10-09T04:38:29.860Z,77.91
2022-10-09T04:39:29.835Z,77.91
2022-10-09T04:40:29.847Z,77.91
2022-10-09T04:41:31.745Z,77.70
2022-10-09T04:42:29.806Z,77.91
2022-10-09T04:43:29.789Z,78.21
2022-10-09T04:44:29.792Z,78.11
2022-10-09T04:45:29.832Z,78.31
2022-10-09T04:46:29.797Z,78.31
2022-10-09T04:47:29.756Z,78.31
2022-10-09T04:48:29.797Z,77.81
2022-10-09T04:49:29.728Z,78.21
2022-10-09T04:50:29.737Z,78.17
2022-10-09T04:51:29.748Z,78.17
2022-10-09T04:52:29.691Z,78.11
2022-10-09T04:53:29.671Z,78.28
2022-10-09T04:54:29.677Z,78.21
2022-10-09T04:55:29.653Z,78.11
2022-10-09T04:56:29.725Z,78.21
2022-10-09T04:57:29.641Z,78.21
2022-10-09T04:58:29.619Z,78.21
2022-10-09T04:59:29.623Z,78.11
2022-10-09T05:00:29.597Z,77.91
2022-10-09T05:01:32.052Z,78.01
2022-10-09T05:02:30.663Z,78.08
2022-10-09T05:03:29.594Z,78.11
2022-10-09T05:04:29.591Z,78.21
2022-10-09T05:05:29.572Z,77.87
2022-10-09T05:06:29.526Z,78.11
2022-10-09T05:07:29.524Z,78.17
2022-10-09T05:08:29.542Z,78.08
2022-10-09T05:09:29.621Z,78.31
2022-10-09T05:10:29.489Z,78.17
2022-10-09T05:11:29.472Z,77.77
2022-10-09T05:12:29.459Z,78.17
2022-10-09T05:13:29.454Z,77.87
2022-10-09T05:14:29.495Z,77.67
2022-10-09T05:15:29.432Z,77.60
2022-10-09T05:16:29.492Z,78.01
2022-10-09T05:17:29.481Z,77.60
2022-10-09T05:18:29.402Z,77.67
2022-10-09T05:19:29.381Z,77.81
2022-10-09T05:20:29.436Z,77.56
2022-10-09T05:21:29.361Z,77.67
2022-10-09T05:22:29.346Z,77.70
2022-10-09T05:23:29.342Z,77.77
2022-10-09T05:24:29.323Z,77.60
2022-10-09T05:25:29.314Z,77.60
2022-10-09T05:26:29.336Z,77.81
2022-10-09T05:27:29.298Z,77.70
2022-10-09T05:28:29.358Z,77.70
2022-10-09T05:29:29.275Z,77.81
2022-10-09T05:30:29.254Z,77.81
2022-10-09T05:31:29.415Z,77.70
2022-10-09T05:32:29.250Z,77.97
2022-10-09T05:33:29.218Z,77.56
2022-10-09T05:34:29.246Z,77.67
2022-10-09T05:35:29.197Z,77.67
2022-10-09T05:36:29.219Z,77.67
2022-10-09T05:37:29.191Z,77.67
2022-10-09T05:38:29.220Z,77.67
2022-10-09T05:39:29.158Z,77.67
2022-10-09T05:40:29.442Z,77.77
2022-10-09T05:41:29.138Z,77.56
2022-10-09T05:42:29.128Z,77.97
2022-10-09T05:43:29.111Z,77.94
2022-10-09T05:44:29.114Z,77.94
2022-10-09T05:45:29.121Z,77.53
2022-10-09T05:46:29.080Z,77.94
2022-10-09T05:47:29.068Z,77.83
2022-10-09T05:48:29.049Z,77.53
2022-10-09T05:49:29.042Z,77.94
2022-10-09T05:50:29.092Z,77.83
2022-10-09T05:51:29.023Z,77.94
2022-10-09T05:52:29.033Z,77.94
2022-10-09T05:53:28.994Z,77.94
2022-10-09T05:54:29.045Z,77.70
2022-10-09T05:55:29.009Z,78.00
2022-10-09T05:56:29.011Z,77.80
2022-10-09T05:57:28.949Z,77.80
2022-10-09T05:58:28.938Z,78.00
2022-10-09T05:59:28.933Z,78.00
2022-10-09T06:00:29.030Z,77.76
2022-10-09T06:01:29.077Z,77.76
2022-10-09T06:02:28.979Z,77.76
2022-10-09T06:03:28.885Z,77.66
2022-10-09T06:04:28.868Z,77.45
2022-10-09T06:05:28.859Z,77.56
2022-10-09T06:06:28.844Z,77.52
2022-10-09T06:07:28.838Z,77.22
2022-10-09T06:08:28.856Z,77.32
2022-10-09T06:09:28.903Z,77.32
2022-10-09T06:10:32.301Z,77.42
2022-10-09T06:11:28.800Z,77.42
2022-10-09T06:12:28.780Z,77.32
2022-10-09T06:13:28.766Z,77.22
2022-10-09T06:14:28.793Z,76.81
2022-10-09T06:15:28.858Z,76.98
2022-10-09T06:16:28.773Z,76.87
2022-10-09T06:17:28.733Z,76.78
2022-10-09T06:18:28.707Z,76.87
2022-10-09T06:19:28.699Z,76.54
2022-10-09T06:20:28.800Z,76.54
2022-10-09T06:21:28.672Z,76.84
2022-10-09T06:22:28.663Z,76.74
2022-10-09T06:23:28.655Z,76.74
2022-10-09T06:24:29.590Z,76.54
2022-10-09T06:25:28.634Z,77.25
2022-10-09T06:26:28.648Z,77.25
2022-10-09T06:27:28.606Z,76.54
2022-10-09T06:28:28.666Z,76.70
2022-10-09T06:29:28.582Z,76.90
2022-10-09T06:30:28.667Z,76.50
2022-10-09T06:31:28.618Z,76.56
2022-10-09T06:32:28.582Z,76.50
2022-10-09T06:33:28.542Z,76.36
2022-10-09T06:34:28.522Z,76.36
2022-10-09T06:35:28.517Z,76.67
2022-10-09T06:36:28.500Z,76.53
2022-10-09T06:37:28.493Z,76.63
2022-10-09T06:38:28.514Z,76.09
2022-10-09T06:39:28.470Z,76.19
2022-10-09T06:40:28.521Z,75.58
2022-10-09T06:41:28.443Z,75.55
2022-10-09T06:42:28.435Z,76.05
2022-10-09T06:43:28.425Z,75.65
2022-10-09T06:44:28.447Z,76.05
2022-10-09T06:45:28.408Z,76.22
2022-10-09T06:46:28.409Z,75.85
2022-10-09T06:47:28.382Z,75.92
2022-10-09T06:48:28.364Z,76.12
2022-10-09T06:49:28.359Z,75.81
2022-10-09T06:50:28.358Z,75.68
2022-10-09T06:51:28.342Z,75.48
2022-10-09T06:52:28.330Z,75.64
2022-10-09T06:53:28.364Z,75.13
2022-10-09T06:54:28.301Z,75.31
2022-10-09T06:55:28.913Z,75.16
2022-10-09T06:56:28.367Z,75.16
2022-10-09T06:57:28.272Z,75.13
2022-10-09T06:58:28.253Z,74.83
2022-10-09T06:59:28.250Z,74.93
2022-10-09T07:00:28.252Z,75.20
2022-10-09T07:01:28.243Z,74.79
2022-10-09T07:02:28.300Z,74.99
2022-10-09T07:03:28.196Z,74.76
2022-10-09T07:04:28.209Z,74.76
2022-10-09T07:05:28.174Z,74.86
2022-10-09T07:06:28.172Z,75.16
2022-10-09T07:07:28.154Z,75.06
2022-10-09T07:08:28.153Z,75.06
2022-10-09T07:09:28.131Z,75.16
2022-10-09T07:10:28.157Z,74.55
2022-10-09T07:11:28.181Z,74.73
2022-10-09T07:12:28.120Z,74.66
2022-10-09T07:13:28.085Z,75.26
2022-10-09T07:14:28.083Z,74.76
2022-10-09T07:15:28.120Z,74.86
2022-10-09T07:16:28.159Z,74.73
2022-10-09T07:17:28.057Z,75.02
2022-10-09T07:18:28.031Z,75.06
2022-10-09T07:19:28.014Z,75.46
2022-10-09T07:20:28.041Z,75.36
2022-10-09T07:21:27.989Z,75.46
2022-10-09T07:22:27.981Z,75.46
2022-10-09T07:23:27.972Z,75.46
2022-10-09T07:24:27.976Z,75.67
2022-10-09T07:25:27.952Z,75.67
2022-10-09T07:26:27.977Z,75.36
2022-10-09T07:27:27.923Z,75.46
2022-10-09T07:28:28.011Z,75.46
2022-10-09T07:29:27.897Z,75.36
2022-10-09T07:30:27.914Z,75.56
2022-10-09T07:31:27.939Z,75.76
2022-10-09T07:32:27.885Z,75.70
2022-10-09T07:33:27.858Z,75.70
2022-10-09T07:34:27.873Z,75.36
2022-10-09T07:35:27.838Z,75.36
2022-10-09T07:36:27.819Z,75.26
2022-10-09T07:37:27.831Z,75.46
2022-10-09T07:38:27.912Z,75.36
2022-10-09T07:39:27.788Z,75.36
2022-10-09T07:40:27.781Z,75.46
2022-10-09T07:41:27.851Z,75.36
2022-10-09T07:42:27.753Z,75.46
2022-10-09T07:43:27.739Z,75.36
2022-10-09T07:44:27.837Z,75.53
2022-10-09T07:45:27.721Z,75.36
2022-10-09T07:46:33.026Z,75.83
2022-10-09T07:47:28.698Z,75.63
2022-10-09T07:48:27.707Z,75.63
2022-10-09T07:49:27.676Z,75.73
2022-10-09T07:50:27.676Z,75.53
2022-10-09T07:51:27.657Z,75.53
2022-10-09T07:52:27.641Z,75.53
2022-10-09T07:53:27.628Z,75.63
2022-10-09T07:54:27.615Z,75.63
2022-10-09T07:55:27.642Z,75.63
2022-10-09T07:56:27.622Z,75.63
2022-10-09T07:57:27.578Z,75.63
2022-10-09T07:58:27.580Z,75.63
2022-10-09T07:59:27.582Z,75.67
2022-10-09T08:00:27.576Z,75.76
2022-10-09T08:01:27.586Z,75.76
2022-10-09T08:02:27.602Z,75.67
2022-10-09T08:03:27.515Z,75.76
2022-10-09T08:04:27.499Z,75.60
2022-10-09T08:05:27.506Z,75.56
2022-10-09T08:06:27.474Z,75.90
2022-10-09T08:07:31.345Z,75.60
2022-10-09T08:08:28.535Z,75.70
2022-10-09T08:09:27.454Z,75.40
2022-10-09T08:10:27.433Z,75.60
2022-10-09T08:11:27.432Z,75.74
2022-10-09T08:12:27.416Z,75.54
2022-10-09T08:13:27.397Z,75.80
2022-10-09T08:14:27.419Z,75.80
2022-10-09T08:15:27.408Z,75.80
2022-10-09T08:16:27.391Z,75.56
2022-10-09T08:17:27.383Z,75.40
2022-10-09T08:18:27.345Z,75.36
2022-10-09T08:19:27.343Z,75.43
2022-10-09T08:20:27.349Z,75.13
2022-10-09T08:21:27.313Z,75.43
2022-10-09T08:22:27.317Z,74.89
2022-10-09T08:23:27.303Z,74.49
2022-10-09T08:24:27.307Z,74.79
2022-10-09T08:25:27.290Z,74.79
2022-10-09T08:26:27.273Z,74.65
2022-10-09T08:27:27.241Z,74.65
2022-10-09T08:28:27.313Z,74.65
2022-10-09T08:29:27.217Z,74.65
2022-10-09T08:30:27.205Z,74.58
2022-10-09T08:31:27.334Z,74.69
2022-10-09T08:32:27.245Z,74.85
2022-10-09T08:33:27.195Z,74.99
2022-10-09T08:34:27.161Z,74.69
2022-10-09T08:35:29.976Z,75.05
2022-10-09T08:36:28.135Z,74.45
2022-10-09T08:37:27.127Z,74.89
2022-10-09T08:38:46.190Z,75.39
2022-10-09T08:39:28.103Z,75.49
2022-10-09T08:40:27.100Z,75.63
2022-10-09T08:41:27.082Z,75.83
2022-10-09T08:42:27.066Z,75.43
2022-10-09T08:43:27.063Z,75.83
2022-10-09T08:44:27.095Z,75.83
2022-10-09T08:45:27.040Z,75.43
2022-10-09T08:46:27.076Z,75.63
2022-10-09T08:47:27.026Z,75.53
2022-10-09T08:48:27.030Z,75.53
2022-10-09T08:49:26.991Z,75.70
2022-10-09T08:50:27.005Z,75.49
2022-10-09T08:51:26.995Z,75.39
2022-10-09T08:52:27.061Z,75.49
2022-10-09T08:53:26.949Z,75.29
2022-10-09T08:54:26.928Z,75.29
2022-10-09T08:55:26.927Z,75.39
2022-10-09T08:56:26.929Z,75.39
2022-10-09T08:57:26.904Z,75.49
2022-10-09T08:58:26.898Z,75.39
2022-10-09T08:59:26.875Z,75.29
2022-10-09T09:00:26.872Z,75.29
2022-10-09T09:01:26.991Z,75.35
2022-10-09T09:02:26.919Z,75.35
2022-10-09T09:03:26.838Z,75.35
2022-10-09T09:04:26.872Z,75.35
2022-10-09T09:05:26.833Z,75.26
2022-10-09T09:06:26.803Z,75.22
2022-10-09T09:07:26.789Z,75.12
2022-10-09T09:08:26.919Z,74.82
2022-10-09T09:09:26.769Z,75.32
2022-10-09T09:10:26.750Z,75.02
2022-10-09T09:11:26.742Z,74.82
2022-10-09T09:12:26.761Z,74.62
2022-10-09T09:13:26.730Z,74.62
2022-10-09T09:14:26.815Z,74.98
2022-10-09T09:15:26.713Z,75.02
2022-10-09T09:16:26.735Z,74.48
2022-10-09T09:17:26.685Z,74.38
2022-10-09T09:18:26.665Z,74.82
2022-10-09T09:19:26.674Z,75.02
2022-10-09T09:20:26.685Z,74.88
2022-10-09T09:21:26.630Z,74.78
2022-10-09T09:22:26.614Z,75.09
2022-10-09T09:23:26.602Z,74.88
2022-10-09T09:24:26.597Z,74.98
2022-10-09T09:25:26.599Z,75.09
2022-10-09T09:26:26.631Z,74.48
2022-10-09T09:27:26.560Z,74.58
2022-10-09T09:28:26.582Z,74.58
2022-10-09T09:29:26.603Z,74.58
2022-10-09T09:30:26.530Z,74.88
2022-10-09T09:31:26.564Z,74.58
2022-10-09T09:32:26.533Z,74.68
2022-10-09T09:33:26.502Z,74.68
2022-10-09T09:34:26.486Z,74.65
2022-10-09T09:35:26.493Z,74.48
2022-10-09T09:36:26.488Z,74.98
2022-10-09T09:37:26.455Z,74.98
2022-10-09T09:38:26.460Z,74.98
2022-10-09T09:40:46.834Z,75.02
2022-10-09T09:41:27.400Z,75.02
2022-10-09T09:42:26.394Z,74.82
2022-10-09T09:43:26.380Z,74.52
2022-10-09T09:44:26.402Z,74.92
2022-10-09T09:45:26.354Z,74.72
2022-10-09T09:46:26.401Z,75.02
2022-10-09T09:47:26.340Z,75.12
2022-10-09T09:48:26.352Z,74.62
2022-10-09T09:49:26.321Z,74.92
2022-10-09T09:50:46.233Z,74.82
2022-10-09T09:51:29.168Z,74.72
2022-10-09T09:52:26.300Z,74.52
2022-10-09T09:53:26.260Z,75.02
2022-10-09T09:54:26.255Z,74.62
2022-10-09T09:55:26.246Z,74.98
2022-10-09T09:56:26.247Z,74.58
2022-10-09T09:57:26.225Z,74.68
2022-10-09T09:58:26.214Z,74.58
2022-10-09T09:59:26.192Z,74.74
2022-10-09T10:00:26.192Z,74.78
2022-10-09T10:01:26.279Z,74.78
2022-10-09T10:02:26.334Z,74.65
2022-10-09T10:03:26.160Z,74.24
2022-10-09T10:04:26.208Z,74.35
2022-10-09T10:05:26.135Z,74.31
2022-10-09T10:06:26.112Z,74.15
2022-10-09T10:07:26.107Z,74.24
2022-10-09T10:08:26.144Z,74.35
2022-10-09T10:09:26.104Z,73.94
2022-10-09T10:10:26.145Z,74.24
2022-10-09T10:11:26.057Z,73.74
2022-10-09T10:12:26.056Z,74.35
2022-10-09T10:13:26.046Z,74.11
2022-10-09T10:14:26.067Z,74.11
2022-10-09T10:15:26.025Z,73.81
2022-10-09T10:16:26.086Z,73.91
2022-10-09T10:17:25.990Z,73.21
2022-10-09T10:18:25.984Z,73.27
2022-10-09T10:19:25.988Z,73.07
2022-10-09T10:20:26.046Z,73.27
2022-10-09T10:21:25.952Z,73.27
2022-10-09T10:22:25.942Z,73.50
2022-10-09T10:23:25.929Z,73.71
2022-10-09T10:24:25.996Z,73.81
2022-10-09T10:25:25.898Z,73.74
2022-10-09T10:26:25.940Z,74.24
2022-10-09T10:27:25.885Z,74.28
2022-10-09T10:28:25.898Z,73.88
2022-10-09T10:29:25.860Z,73.78
2022-10-09T10:30:25.851Z,74.28
2022-10-09T10:31:25.879Z,74.28
2022-10-09T10:32:25.863Z,73.98
2022-10-09T10:33:25.812Z,74.18
2022-10-09T10:34:25.832Z,73.68
2022-10-09T10:35:25.793Z,74.35
2022-10-09T10:36:25.783Z,74.24
2022-10-09T10:37:25.767Z,73.94
2022-10-09T10:38:25.809Z,74.24
2022-10-09T10:39:25.743Z,73.71
2022-10-09T10:40:25.760Z,74.01
2022-10-09T10:41:25.724Z,73.81
2022-10-09T10:42:25.712Z,73.64
2022-10-09T10:43:25.705Z,73.91
2022-10-09T10:44:25.724Z,73.71
2022-10-09T10:45:25.674Z,73.64
2022-10-09T10:46:25.702Z,73.74
2022-10-09T10:47:25.652Z,73.94
2022-10-09T10:48:25.676Z,73.64
2022-10-09T10:49:26.855Z,73.84
2022-10-09T10:50:25.663Z,73.84
2022-10-09T10:51:25.611Z,73.84
2022-10-09T10:52:25.597Z,73.74
2022-10-09T10:53:25.590Z,73.64
2022-10-09T10:54:25.608Z,74.04
2022-10-09T10:55:25.577Z,73.94
2022-10-09T10:56:25.609Z,73.74
2022-10-09T10:57:25.539Z,73.84
2022-10-09T10:58:25.540Z,74.04
2022-10-09T10:59:25.513Z,73.71
2022-10-09T11:00:25.514Z,73.61
2022-10-09T11:01:25.600Z,73.34
2022-10-09T11:02:25.510Z,73.50
2022-10-09T11:03:25.575Z,73.34
2022-10-09T11:04:25.461Z,73.30
2022-10-09T11:05:25.458Z,73.81
2022-10-09T11:06:25.436Z,73.54
2022-10-09T11:07:25.429Z,73.24
2022-10-09T11:08:25.439Z,73.30
2022-10-09T11:09:25.406Z,73.61
2022-10-09T11:10:25.400Z,73.50
2022-10-09T11:11:25.376Z,73.34
2022-10-09T11:12:46.669Z,73.50
2022-10-09T11:13:26.377Z,73.74
2022-10-09T11:14:25.352Z,73.84
2022-10-09T11:15:25.343Z,73.84
2022-10-09T11:16:26.131Z,73.94
2022-10-09T11:17:25.317Z,73.84
2022-10-09T11:18:25.315Z,73.84
2022-10-09T11:19:25.366Z,73.44
2022-10-09T11:20:25.282Z,73.54
2022-10-09T11:21:25.273Z,73.91
2022-10-09T11:22:25.260Z,73.41
2022-10-09T11:23:25.277Z,73.21
2022-10-09T11:24:25.247Z,73.71
2022-10-09T11:25:25.313Z,73.41
2022-10-09T11:26:25.234Z,73.00
2022-10-09T11:27:25.206Z,73.30
2022-10-09T11:28:25.293Z,73.17
2022-10-09T11:29:25.188Z,72.90
2022-10-09T11:30:25.169Z,72.87
2022-10-09T11:31:25.251Z,73.17
2022-10-09T11:32:25.150Z,73.17
2022-10-09T11:33:25.158Z,72.87
2022-10-09T11:34:25.128Z,72.63
2022-10-09T11:35:25.112Z,72.53
2022-10-09T11:36:25.252Z,72.53
2022-10-09T11:37:25.117Z,72.63
2022-10-09T11:38:25.069Z,72.74
2022-10-09T11:39:25.064Z,72.63
2022-10-09T11:40:25.053Z,72.40
2022-10-09T11:41:25.043Z,72.63
2022-10-09T11:42:25.037Z,72.70
2022-10-09T11:43:25.059Z,72.80
2022-10-09T11:44:25.059Z,72.60
2022-10-09T11:45:25.084Z,72.60
2022-10-09T11:46:25.000Z,72.90
2022-10-09T11:47:24.983Z,72.90
2022-10-09T11:48:24.964Z,72.70
2022-10-09T11:49:25.009Z,72.60
2022-10-09T11:50:24.970Z,72.50
2022-10-09T11:51:24.926Z,72.50
2022-10-09T11:52:24.943Z,72.70
2022-10-09T11:53:24.909Z,72.80
2022-10-09T11:54:24.928Z,72.60
2022-10-09T11:55:24.919Z,72.86
2022-10-09T11:56:24.943Z,72.47
2022-10-09T11:57:24.857Z,72.56
2022-10-09T11:58:24.879Z,72.16
2022-10-09T11:59:24.837Z,72.16
2022-10-09T12:00:24.852Z,72.47
2022-10-09T12:01:24.937Z,72.56
2022-10-09T12:02:24.945Z,72.36
2022-10-09T12:03:24.796Z,72.27
2022-10-09T12:04:43.497Z,71.96
2022-10-09T12:05:25.768Z,72.16
2022-10-09T12:06:24.755Z,72.36
2022-10-09T12:07:24.836Z,72.70
2022-10-09T12:08:24.789Z,72.40
2022-10-09T12:09:24.735Z,72.20
2022-10-09T12:10:24.713Z,72.40
2022-10-09T12:11:24.706Z,72.30
2022-10-09T12:12:24.693Z,72.20
2022-10-09T12:13:24.710Z,72.50
2022-10-09T12:14:24.674Z,72.60
2022-10-09T12:15:24.665Z,72.60
2022-10-09T12:16:24.736Z,72.30
2022-10-09T12:17:24.637Z,72.20
2022-10-09T12:18:24.621Z,72.60
2022-10-09T12:19:24.647Z,72.40
2022-10-09T12:20:24.596Z,72.60
2022-10-09T12:21:24.595Z,72.53
2022-10-09T12:22:24.584Z,72.60
2022-10-09T12:23:27.386Z,72.63
2022-10-09T12:24:24.556Z,72.74
2022-10-09T12:25:24.569Z,72.63
2022-10-09T12:26:24.553Z,72.43
2022-10-09T12:27:24.523Z,72.33
2022-10-09T12:28:24.577Z,72.24
2022-10-09T12:29:24.503Z,72.63
2022-10-09T12:30:24.485Z,72.74
2022-10-09T12:31:24.588Z,72.83
2022-10-09T12:32:24.489Z,72.83
2022-10-09T12:33:24.446Z,72.63
2022-10-09T12:34:24.439Z,72.43
2022-10-09T12:35:24.433Z,72.74
2022-10-09T12:36:24.446Z,72.33
2022-10-09T12:37:24.432Z,72.74
2022-10-09T12:38:24.394Z,72.24
2022-10-09T12:39:24.383Z,72.33
2022-10-09T12:40:24.374Z,72.37
2022-10-09T12:41:24.364Z,72.37
2022-10-09T12:42:24.472Z,72.17
2022-10-09T12:43:24.405Z,72.27
2022-10-09T12:44:24.327Z,72.27
2022-10-09T12:45:24.336Z,72.27
2022-10-09T12:46:24.370Z,72.27
2022-10-09T12:47:24.317Z,72.17
2022-10-09T12:48:24.311Z,72.77
2022-10-09T12:49:24.283Z,72.27
2022-10-09T12:50:24.265Z,72.27
2022-10-09T12:51:24.243Z,72.17
2022-10-09T12:52:24.233Z,72.06
2022-10-09T12:53:24.226Z,72.17